Time;durP1;ratioP1;P1;durP2;ratioP2;P2;SDS_P1;SDS_P2;PMS_P1;PMS_P2;Temp;Humidity;BMP_temperature;BMP_pressure;BME280_temperature;BME280_humidity;BME280_pressure;Samples;Min_cycle;Max_cycle;Signal;HPM_P1;HPM_P2
2021/03/10 00:00:00;;;;;;;15.70;12.83;;;5.50;92.40;;;;;;5092900;28;20185;-51
2021/03/10 00:02:25;;;;;;;16.60;12.40;;;5.40;93.20;;;;;;5093051;28;20641;-55
2021/03/10 00:04:51;;;;;;;14.47;12.20;;;5.30;94.10;;;;;;5093474;28;20272;-57
2021/03/10 00:07:17;;;;;;;15.17;12.60;;;5.30;94.40;;;;;;5093884;28;20248;-51
2021/03/10 00:09:42;;;;;;;16.10;12.50;;;5.30;94.80;;;;;;5093385;28;20209;-58
2021/03/10 00:12:08;;;;;;;15.63;12.43;;;5.30;95.10;;;;;;5093447;28;20181;-54
2021/03/10 00:14:34;;;;;;;14.80;12.43;;;5.30;95.80;;;;;;5094246;28;20537;-52
2021/03/10 00:16:59;;;;;;;18.50;14.30;;;5.40;95.70;;;;;;5093553;28;20174;-50
2021/03/10 00:19:25;;;;;;;16.03;13.00;;;5.40;96.10;;;;;;5094002;28;20248;-57
2021/03/10 00:21:51;;;;;;;15.63;12.93;;;5.20;97.10;;;;;;5093521;28;20683;-52
2021/03/10 00:24:17;;;;;;;15.90;12.57;;;5.00;98.40;;;;;;5093447;28;20206;-57
2021/03/10 00:26:44;;;;;;;16.50;12.47;;;5.00;99.60;;;;;;5093880;28;20203;-57
2021/03/10 00:29:09;;;;;;;14.63;12.97;;;4.90;99.90;;;;;;5093654;28;20178;-51
2021/03/10 00:31:35;;;;;;;16.03;12.80;;;4.80;99.90;;;;;;5093676;28;20237;-57
2021/03/10 00:34:01;;;;;;;16.77;13.53;;;4.70;99.90;;;;;;5093472;28;20182;-49
2021/03/10 00:36:26;;;;;;;18.00;14.43;;;4.70;99.90;;;;;;5094509;28;20317;-49
2021/03/10 00:38:52;;;;;;;15.97;13.10;;;4.80;99.90;;;;;;5097255;28;20176;-52
2021/03/10 00:41:17;;;;;;;17.40;13.70;;;4.70;99.90;;;;;;5097104;28;20173;-58
2021/03/10 00:43:43;;;;;;;19.10;13.90;;;4.70;99.90;;;;;;5097728;28;20775;-58
2021/03/10 00:46:08;;;;;;;16.40;14.13;;;4.70;99.90;;;;;;5097391;28;20215;-50
2021/03/10 00:48:34;;;;;;;16.47;13.77;;;4.70;99.90;;;;;;5097181;28;20166;-52
2021/03/10 00:50:59;;;;;;;16.83;13.20;;;4.70;99.90;;;;;;5096962;28;20178;-49
2021/03/10 00:53:25;;;;;;;14.17;11.93;;;4.60;99.90;;;;;;5097285;28;20209;-54
2021/03/10 00:55:50;;;;;;;18.33;13.50;;;4.60;99.90;;;;;;5096859;28;20198;-58
2021/03/10 00:58:16;;;;;;;18.50;14.87;;;4.70;99.90;;;;;;5097527;28;20252;-58
2021/03/10 01:00:41;;;;;;;17.70;14.93;;;4.70;99.90;;;;;;5097103;28;20177;-58
2021/03/10 01:03:07;;;;;;;16.60;13.47;;;4.70;99.90;;;;;;5096419;28;20201;-49
2021/03/10 01:05:33;;;;;;;16.83;14.33;;;4.70;99.90;;;;;;5096701;28;20198;-56
2021/03/10 01:07:58;;;;;;;17.00;13.97;;;4.70;99.90;;;;;;5096665;28;20193;-51
2021/03/10 01:10:25;;;;;;;16.93;13.67;;;4.70;99.90;;;;;;5096517;28;20186;-55
2021/03/10 01:12:50;;;;;;;17.77;14.10;;;4.80;99.90;;;;;;5096450;28;20186;-56
2021/03/10 01:15:18;;;;;;;15.33;13.07;;;4.80;99.90;;;;;;5097055;28;20288;-53
2021/03/10 01:17:44;;;;;;;18.20;14.40;;;4.70;99.90;;;;;;5096901;28;20265;-49
2021/03/10 01:20:14;;;;;;;19.43;14.93;;;4.80;99.90;;;;;;5088687;28;20223;-52
2021/03/10 01:22:40;;;;;;;20.27;15.43;;;4.70;99.90;;;;;;5076587;28;20596;-58
2021/03/10 01:25:07;;;;;;;16.87;14.13;;;4.70;99.90;;;;;;5075757;28;20807;-54
2021/03/10 01:27:32;;;;;;;16.73;13.80;;;4.60;99.90;;;;;;5076389;28;20629;-50
2021/03/10 01:29:58;;;;;;;20.90;16.23;;;4.60;99.90;;;;;;5076256;28;20185;-56
2021/03/10 01:32:23;;;;;;;19.63;15.03;;;4.40;99.90;;;;;;5084707;28;20174;-51
2021/03/10 01:34:49;;;;;;;17.03;14.83;;;4.30;99.90;;;;;;5096135;28;20276;-52
2021/03/10 01:37:15;;;;;;;17.63;14.63;;;4.40;99.90;;;;;;5096736;28;20610;-50
2021/03/10 01:39:40;;;;;;;17.03;13.97;;;4.50;99.90;;;;;;5096633;28;20249;-58
2021/03/10 01:42:06;;;;;;;18.23;14.73;;;4.40;99.90;;;;;;5095844;28;20177;-53
2021/03/10 01:44:33;;;;;;;21.90;15.77;;;4.40;99.90;;;;;;5096523;28;20270;-55
2021/03/10 01:46:59;;;;;;;18.23;14.87;;;4.40;99.90;;;;;;5096241;28;20742;-50
2021/03/10 01:49:25;;;;;;;16.70;14.40;;;4.40;99.90;;;;;;5095180;28;20655;-49
2021/03/10 01:51:50;;;;;;;16.57;13.93;;;4.40;99.90;;;;;;5095769;28;20174;-56
2021/03/10 01:54:16;;;;;;;17.13;13.67;;;4.50;99.90;;;;;;5095742;28;20319;-49
2021/03/10 01:56:42;;;;;;;17.97;14.17;;;4.50;99.90;;;;;;5095699;28;20200;-50
2021/03/10 01:59:09;;;;;;;17.57;13.97;;;4.50;99.90;;;;;;5095543;28;20166;-53
2021/03/10 02:01:34;;;;;;;18.17;15.80;;;4.60;99.90;;;;;;5096229;28;20262;-49
2021/03/10 02:04:07;;;;;;;21.97;16.43;;;4.70;99.90;;;;;;5095955;28;20229;-52
2021/03/10 02:07:03;;;;;;;16.57;13.97;;;4.70;99.90;;;;;;5095706;28;20192;-53
2021/03/10 02:10:03;;;;;;;18.43;15.03;;;4.60;99.90;;;;;;5095640;28;20194;-50
2021/03/10 02:12:59;;;;;;;16.50;14.40;;;4.50;99.90;;;;;;5095667;28;20166;-52
2021/03/10 02:15:36;;;;;;;18.33;14.87;;;4.60;99.90;;;;;;5095737;28;20663;-58
2021/03/10 02:18:09;;;;;;;21.00;16.20;;;4.60;99.90;;;;;;5096055;28;20567;-49
2021/03/10 02:20:49;;;;;;;20.83;16.17;;;4.50;99.90;;;;;;5095670;28;20649;-50
2021/03/10 02:23:48;;;;;;;21.63;17.90;;;4.40;99.90;;;;;;5095411;28;20224;-50
2021/03/10 02:26:31;;;;;;;18.90;15.40;;;4.30;99.90;;;;;;5095122;28;20453;-52
2021/03/10 02:29:06;;;;;;;20.33;16.83;;;4.30;99.90;;;;;;5095320;28;20613;-56
2021/03/10 02:31:44;;;;;;;21.50;16.67;;;4.30;99.90;;;;;;5095502;28;20165;-51
2021/03/10 02:34:11;;;;;;;23.47;18.47;;;4.40;99.90;;;;;;5095370;28;20988;-55
2021/03/10 02:36:38;;;;;;;21.00;17.77;;;4.40;99.90;;;;;;5095690;28;20707;-55
2021/03/10 02:39:07;;;;;;;22.20;16.97;;;4.20;99.90;;;;;;5095275;28;20257;-51
2021/03/10 02:41:33;;;;;;;20.50;16.83;;;4.10;99.90;;;;;;5094725;28;20216;-57
2021/03/10 02:44:00;;;;;;;23.73;19.30;;;4.10;99.90;;;;;;5094513;28;20209;-52
2021/03/10 02:46:27;;;;;;;23.10;18.30;;;4.10;99.90;;;;;;5095184;28;20235;-56
2021/03/10 02:48:53;;;;;;;22.50;18.83;;;4.00;99.90;;;;;;5094692;28;20626;-58
2021/03/10 02:51:21;;;;;;;23.13;18.10;;;3.90;99.90;;;;;;5094572;28;20472;-54
2021/03/10 02:53:48;;;;;;;23.23;19.63;;;4.00;99.90;;;;;;5094842;28;20169;-50
2021/03/10 02:56:14;;;;;;;26.13;20.03;;;3.90;99.90;;;;;;5094837;28;20427;-54
2021/03/10 02:58:41;;;;;;;24.10;19.40;;;3.90;99.90;;;;;;5094613;28;20408;-56
2021/03/10 03:01:07;;;;;;;21.93;18.07;;;3.90;99.90;;;;;;5094291;28;20399;-56
2021/03/10 03:03:33;;;;;;;20.60;17.50;;;3.80;99.90;;;;;;5094537;28;20201;-56
2021/03/10 03:05:59;;;;;;;23.53;18.33;;;3.90;99.90;;;;;;5094607;28;20420;-58
2021/03/10 03:08:25;;;;;;;24.43;19.00;;;4.00;99.90;;;;;;5094657;28;20265;-59
2021/03/10 03:10:52;;;;;;;23.93;18.63;;;4.10;99.90;;;;;;5094259;28;20182;-53
2021/03/10 03:13:20;;;;;;;23.47;18.77;;;4.20;99.90;;;;;;5094975;28;20308;-55
2021/03/10 03:15:50;;;;;;;21.97;17.97;;;4.20;99.90;;;;;;5094317;28;20474;-57
2021/03/10 03:18:16;;;;;;;19.93;16.67;;;4.30;99.90;;;;;;5094629;28;20166;-53
2021/03/10 03:20:41;;;;;;;22.90;19.03;;;4.30;99.90;;;;;;5094607;28;20227;-56
2021/03/10 03:23:07;;;;;;;25.40;20.57;;;4.30;99.90;;;;;;5094370;28;20254;-50
2021/03/10 03:25:35;;;;;;;25.77;20.97;;;4.30;99.90;;;;;;5094154;28;20228;-58
2021/03/10 03:28:03;;;;;;;22.47;18.73;;;4.20;99.90;;;;;;5094261;28;20163;-56
2021/03/10 03:30:32;;;;;;;22.60;18.37;;;4.10;99.90;;;;;;5094618;28;20760;-55
2021/03/10 03:33:01;;;;;;;23.57;19.17;;;4.10;99.90;;;;;;5094019;28;20769;-53
2021/03/10 03:35:26;;;;;;;20.87;17.00;;;4.20;99.90;;;;;;5094244;28;20306;-58
2021/03/10 03:37:53;;;;;;;22.97;17.13;;;4.30;99.90;;;;;;5094451;28;20177;-50
2021/03/10 03:40:22;;;;;;;19.67;16.57;;;4.30;99.90;;;;;;5094232;28;20181;-55
2021/03/10 03:42:48;;;;;;;20.20;17.57;;;4.40;99.90;;;;;;5094397;28;20448;-58
2021/03/10 03:45:18;;;;;;;25.00;19.90;;;4.50;99.90;;;;;;5094131;28;20266;-52
2021/03/10 03:47:48;;;;;;;25.33;20.70;;;4.40;99.90;;;;;;5093902;28;20197;-55
2021/03/10 03:50:14;;;;;;;21.57;17.20;;;4.50;99.90;;;;;;5094238;28;20613;-54
2021/03/10 03:52:41;;;;;;;23.53;17.63;;;4.50;99.90;;;;;;5094229;28;20222;-58
2021/03/10 03:55:07;;;;;;;22.17;18.43;;;4.60;99.90;;;;;;5093737;28;20193;-57
2021/03/10 03:57:33;;;;;;;20.77;17.53;;;4.40;99.90;;;;;;5094477;28;20184;-55
2021/03/10 03:59:58;;;;;;;21.37;18.17;;;4.30;99.90;;;;;;5092546;28;20181;-56
2021/03/10 04:02:24;;;;;;;21.13;17.47;;;4.40;99.90;;;;;;5093574;28;20203;-54
2021/03/10 04:04:49;;;;;;;20.80;16.97;;;4.40;99.90;;;;;;5093726;28;20177;-49
2021/03/10 04:07:15;;;;;;;21.47;17.57;;;4.50;99.90;;;;;;5093685;28;20162;-53
2021/03/10 04:09:40;;;;;;;20.70;17.40;;;4.40;99.90;;;;;;5093811;28;20178;-50
2021/03/10 04:12:06;;;;;;;23.70;16.90;;;4.50;99.90;;;;;;5095825;28;20177;-58
2021/03/10 04:14:32;;;;;;;22.30;17.63;;;4.50;99.90;;;;;;5098538;28;20202;-57
2021/03/10 04:16:57;;;;;;;23.83;18.83;;;4.50;99.90;;;;;;5097825;28;20264;-49
2021/03/10 04:19:23;;;;;;;23.27;19.53;;;4.50;99.90;;;;;;5091968;28;20202;-55
2021/03/10 04:21:49;;;;;;;23.43;19.23;;;4.50;99.90;;;;;;5086017;28;20212;-54
2021/03/10 04:24:14;;;;;;;25.27;21.33;;;4.30;99.90;;;;;;5087688;28;20204;-50
2021/03/10 04:26:40;;;;;;;27.57;22.57;;;4.10;99.90;;;;;;5087395;28;20183;-57
2021/03/10 04:29:05;;;;;;;26.30;21.93;;;4.10;99.90;;;;;;5088671;28;20162;-55
2021/03/10 04:31:31;;;;;;;24.33;20.47;;;4.10;99.90;;;;;;5085251;28;20170;-56
2021/03/10 04:33:56;;;;;;;22.53;18.97;;;4.10;99.90;;;;;;5086805;28;20604;-50
2021/03/10 04:36:22;;;;;;;24.33;19.23;;;4.10;99.90;;;;;;5085507;28;20721;-50
2021/03/10 04:38:47;;;;;;;27.77;22.30;;;4.20;99.90;;;;;;5085600;28;20179;-54
2021/03/10 04:41:13;;;;;;;29.03;23.03;;;4.20;99.90;;;;;;5085748;28;20176;-53
2021/03/10 04:43:38;;;;;;;31.17;24.83;;;4.10;99.90;;;;;;5083052;28;20197;-58
2021/03/10 04:46:04;;;;;;;26.43;22.23;;;4.10;99.90;;;;;;5081733;28;20186;-56
2021/03/10 04:48:29;;;;;;;30.00;23.13;;;4.00;99.90;;;;;;5085064;28;20201;-58
2021/03/10 04:50:55;;;;;;;29.63;22.60;;;4.00;99.90;;;;;;5074803;28;20639;-54
2021/03/10 04:53:21;;;;;;;26.37;22.07;;;4.00;99.90;;;;;;5074387;28;20183;-51
2021/03/10 04:55:46;;;;;;;32.63;23.43;;;3.80;99.90;;;;;;5080596;28;20208;-56
2021/03/10 04:58:12;;;;;;;33.17;25.73;;;3.80;99.90;;;;;;5084290;28;20185;-49
2021/03/10 05:00:37;;;;;;;32.57;25.63;;;3.70;99.90;;;;;;5083499;28;20209;-50
2021/03/10 05:03:03;;;;;;;30.83;24.67;;;3.60;99.90;;;;;;5076359;28;20190;-54
2021/03/10 05:05:29;;;;;;;31.13;24.37;;;3.60;99.90;;;;;;5076569;28;20720;-55
2021/03/10 05:07:54;;;;;;;31.30;25.73;;;3.70;99.90;;;;;;5096014;28;20300;-54
2021/03/10 05:10:20;;;;;;;26.63;20.90;;;3.80;99.90;;;;;;5096203;28;20181;-57
2021/03/10 05:12:45;;;;;;;23.57;19.47;;;3.90;99.90;;;;;;5096443;28;20245;-54
2021/03/10 05:15:11;;;;;;;25.27;19.37;;;4.00;99.90;;;;;;5095118;28;20502;-56
2021/03/10 05:17:37;;;;;;;23.67;18.63;;;4.10;99.90;;;;;;5086302;28;20192;-55
2021/03/10 05:20:08;;;;;;;24.93;18.80;;;4.10;99.90;;;;;;5084937;28;20538;-51
2021/03/10 05:22:33;;;;;;;23.27;20.00;;;4.10;99.90;;;;;;5096269;28;20170;-58
2021/03/10 05:24:59;;;;;;;24.03;19.73;;;4.10;99.90;;;;;;5096624;28;20193;-49
2021/03/10 05:27:25;;;;;;;24.93;20.20;;;4.20;99.90;;;;;;5096257;28;20162;-55
2021/03/10 05:29:52;;;;;;;22.47;19.20;;;4.20;99.90;;;;;;5095889;28;20272;-54
2021/03/10 05:32:18;;;;;;;23.93;19.57;;;4.20;99.90;;;;;;5096369;28;20170;-50
2021/03/10 05:34:43;;;;;;;23.13;18.90;;;4.10;99.90;;;;;;5094868;28;20181;-50
2021/03/10 05:37:09;;;;;;;22.30;18.13;;;4.00;99.90;;;;;;5091690;28;20170;-49
2021/03/10 05:39:34;;;;;;;24.53;19.43;;;4.10;99.90;;;;;;5077089;28;20174;-52
2021/03/10 05:42:00;;;;;;;23.37;19.47;;;4.00;99.90;;;;;;5076120;28;20182;-53
2021/03/10 05:44:26;;;;;;;23.23;18.93;;;4.00;99.90;;;;;;5083615;28;20225;-55
2021/03/10 05:46:53;;;;;;;23.53;20.13;;;4.10;99.90;;;;;;5086824;28;20228;-49
2021/03/10 05:49:19;;;;;;;22.40;19.30;;;4.20;99.90;;;;;;5085862;28;20169;-49
2021/03/10 05:51:45;;;;;;;23.23;19.63;;;4.40;99.90;;;;;;5092755;28;20223;-54
2021/03/10 05:54:13;;;;;;;23.47;19.97;;;4.40;99.90;;;;;;5095363;28;20170;-51
2021/03/10 05:56:43;;;;;;;23.90;19.70;;;4.30;99.90;;;;;;5081386;28;20202;-58
2021/03/10 05:59:08;;;;;;;23.67;19.57;;;4.30;99.90;;;;;;5078191;28;20279;-51
2021/03/10 06:01:34;;;;;;;25.47;21.30;;;4.30;99.90;;;;;;5090657;28;20209;-55
2021/03/10 06:04:01;;;;;;;24.60;20.10;;;4.30;99.90;;;;;;5089831;28;20194;-49
2021/03/10 06:06:36;;;;;;;23.53;21.00;;;4.40;99.90;;;;;;5102793;28;20197;-55
2021/03/10 06:09:18;;;;;;;25.97;20.47;;;4.40;99.90;;;;;;5095577;28;20181;-55
2021/03/10 06:12:02;;;;;;;26.10;21.87;;;4.50;99.90;;;;;;5100603;28;20170;-52
2021/03/10 06:14:28;;;;;;;28.33;22.10;;;4.60;99.90;;;;;;5091345;28;20166;-56
2021/03/10 06:17:11;;;;;;;25.63;21.60;;;4.60;99.90;;;;;;5104881;28;20170;-49
2021/03/10 06:19:47;;;;;;;28.93;23.83;;;4.70;99.90;;;;;;5091628;28;20260;-52
2021/03/10 06:22:14;;;;;;;27.20;22.90;;;4.70;99.90;;;;;;5093586;28;20522;-57
2021/03/10 06:24:40;;;;;;;24.57;20.90;;;4.80;99.90;;;;;;5091195;28;20267;-58
2021/03/10 06:27:07;;;;;;;24.87;20.97;;;4.80;99.90;;;;;;5094665;28;20226;-56
2021/03/10 06:29:33;;;;;;;26.03;21.67;;;4.80;99.90;;;;;;5075837;28;20205;-59
2021/03/10 06:32:05;;;;;;;25.17;20.23;;;4.80;99.90;;;;;;5074871;28;20645;-54
2021/03/10 06:34:42;;;;;;;26.43;21.97;;;4.90;99.90;;;;;;5074606;28;20171;-49
2021/03/10 06:37:10;;;;;;;25.77;21.03;;;4.90;99.90;;;;;;5075210;28;20538;-51
2021/03/10 06:39:36;;;;;;;27.30;22.50;;;4.90;99.90;;;;;;5074845;28;20163;-53
2021/03/10 06:42:13;;;;;;;25.53;21.03;;;4.90;99.90;;;;;;5081415;28;20177;-54
2021/03/10 06:44:49;;;;;;;26.37;21.70;;;4.70;99.90;;;;;;5078536;28;20271;-55
2021/03/10 06:47:14;;;;;;;27.07;20.87;;;4.70;99.90;;;;;;5084722;28;20176;-53
2021/03/10 06:49:52;;;;;;;25.03;21.13;;;4.70;99.90;;;;;;5081000;28;20264;-55
2021/03/10 06:52:18;;;;;;;25.53;21.13;;;4.80;99.90;;;;;;5084994;28;20545;-54
2021/03/10 06:54:57;;;;;;;24.30;20.60;;;4.80;99.90;;;;;;5080533;28;20646;-57
2021/03/10 06:57:24;;;;;;;24.37;20.57;;;4.80;99.90;;;;;;5079216;28;20190;-54
2021/03/10 06:59:52;;;;;;;25.27;21.13;;;4.90;99.90;;;;;;5103350;28;20179;-55
2021/03/10 07:02:29;;;;;;;24.53;19.67;;;5.00;99.90;;;;;;5097577;28;20190;-50
2021/03/10 07:04:57;;;;;;;25.87;21.40;;;5.10;99.90;;;;;;5094673;28;20203;-53
2021/03/10 07:07:28;;;;;;;24.13;20.73;;;5.10;99.90;;;;;;5091079;28;20227;-51
2021/03/10 07:09:53;;;;;;;25.07;20.73;;;5.10;99.90;;;;;;5074566;28;20538;-49
2021/03/10 07:12:22;;;;;;;25.43;20.70;;;5.10;99.90;;;;;;5070897;28;20626;-55
2021/03/10 07:14:48;;;;;;;25.10;21.43;;;5.10;99.90;;;;;;5071189;28;20216;-50
2021/03/10 07:17:18;;;;;;;27.37;22.80;;;4.90;99.90;;;;;;5077840;28;20175;-56
2021/03/10 07:19:45;;;;;;;28.23;24.10;;;4.90;99.90;;;;;;5079826;28;20696;-50
2021/03/10 07:22:12;;;;;;;26.50;21.63;;;4.80;99.90;;;;;;5080745;28;20186;-57
2021/03/10 07:25:07;;;;;;;26.50;21.80;;;4.80;99.90;;;;;;5072992;28;20741;-49
2021/03/10 07:27:45;;;;;;;23.90;19.43;;;4.70;99.90;;;;;;5080908;28;20178;-53
2021/03/10 07:30:11;;;;;;;24.53;21.03;;;4.70;99.90;;;;;;5090986;28;20231;-48
2021/03/10 07:32:37;;;;;;;23.67;20.30;;;4.70;99.90;;;;;;5088148;28;20194;-50
2021/03/10 07:35:10;;;;;;;27.63;21.90;;;4.80;99.90;;;;;;5087892;28;20210;-47
2021/03/10 07:37:51;;;;;;;28.67;22.60;;;4.90;99.90;;;;;;5093633;28;20262;-51
2021/03/10 07:40:17;;;;;;;26.27;21.73;;;4.90;99.90;;;;;;5079263;28;20178;-50
2021/03/10 07:42:54;;;;;;;29.43;23.17;;;4.90;99.90;;;;;;5073948;28;20174;-47
2021/03/10 07:45:25;;;;;;;27.43;21.80;;;5.00;99.90;;;;;;5085033;28;20233;-52
2021/03/10 07:47:52;;;;;;;29.80;22.67;;;5.00;99.90;;;;;;5094624;28;20245;-50
2021/03/10 07:50:18;;;;;;;28.03;22.57;;;5.00;99.90;;;;;;5085505;28;20233;-56
2021/03/10 07:52:52;;;;;;;28.70;23.17;;;5.00;99.90;;;;;;5073745;28;20253;-51
2021/03/10 07:55:17;;;;;;;26.37;22.10;;;5.10;99.90;;;;;;5074303;28;20365;-52
2021/03/10 07:57:51;;;;;;;24.87;22.13;;;5.10;99.90;;;;;;5074219;28;20170;-56
2021/03/10 08:00:17;;;;;;;28.40;23.13;;;5.10;99.90;;;;;;5074474;28;20178;-51
2021/03/10 08:02:45;;;;;;;28.13;23.63;;;5.20;99.90;;;;;;5074074;28;20205;-47
2021/03/10 08:05:25;;;;;;;28.27;23.33;;;5.30;99.90;;;;;;5075590;28;20203;-56
2021/03/10 08:08:11;;;;;;;26.03;22.03;;;5.40;99.90;;;;;;5093485;28;20178;-49
2021/03/10 08:10:37;;;;;;;26.07;20.57;;;5.50;99.90;;;;;;5083832;28;20307;-49
2021/03/10 08:13:20;;;;;;;24.13;19.80;;;5.50;99.90;;;;;;5094237;28;20310;-57
2021/03/10 08:15:46;;;;;;;21.83;18.97;;;5.40;99.90;;;;;;5094173;28;20198;-50
2021/03/10 08:18:12;;;;;;;23.83;20.37;;;5.50;99.90;;;;;;5093577;28;20174;-47
2021/03/10 08:20:38;;;;;;;23.03;20.20;;;5.60;99.90;;;;;;5094664;28;20668;-46
2021/03/10 08:23:06;;;;;;;23.43;20.37;;;5.60;99.90;;;;;;5093824;28;20197;-50
2021/03/10 08:25:35;;;;;;;22.97;20.17;;;5.60;99.90;;;;;;5081768;28;20215;-47
2021/03/10 08:28:14;;;;;;;43.13;32.50;;;5.60;99.90;;;;;;5073298;28;20531;-49
2021/03/10 08:30:40;;;;;;;24.63;21.10;;;5.80;99.90;;;;;;5073837;28;20618;-53
2021/03/10 08:33:07;;;;;;;26.57;21.30;;;5.60;99.90;;;;;;5073638;28;20700;-50
2021/03/10 08:35:33;;;;;;;23.30;19.27;;;5.50;99.90;;;;;;5073694;28;20226;-50
2021/03/10 08:38:04;;;;;;;24.63;21.17;;;5.40;99.90;;;;;;5094329;28;20192;-54
2021/03/10 08:40:31;;;;;;;23.53;21.03;;;5.50;99.90;;;;;;5093461;28;20530;-47
2021/03/10 08:43:02;;;;;;;24.97;21.27;;;5.60;99.90;;;;;;5093144;28;20198;-51
2021/03/10 08:45:33;;;;;;;24.43;21.07;;;5.70;99.90;;;;;;5094117;28;20650;-51
2021/03/10 08:47:59;;;;;;;26.10;22.13;;;5.80;99.90;;;;;;5093708;28;20227;-51
2021/03/10 08:50:30;;;;;;;26.77;23.27;;;5.80;99.90;;;;;;5087208;28;20167;-47
2021/03/10 08:52:56;;;;;;;27.57;24.07;;;5.80;99.90;;;;;;5080941;28;20216;-47
2021/03/10 08:55:26;;;;;;;30.57;24.80;;;5.70;99.90;;;;;;5083655;28;20205;-52
2021/03/10 08:57:57;;;;;;;27.87;23.40;;;5.50;99.90;;;;;;5083222;28;20519;-49
2021/03/10 09:00:28;;;;;;;27.57;23.57;;;5.50;99.90;;;;;;5082984;28;20186;-48
2021/03/10 09:02:54;;;;;;;26.33;22.60;;;5.40;99.90;;;;;;5076938;28;20608;-53
2021/03/10 09:05:28;;;;;;;28.07;23.57;;;5.30;99.90;;;;;;5080569;28;20277;-52
2021/03/10 09:07:54;;;;;;;27.50;22.37;;;5.30;99.90;;;;;;5078788;28;20162;-47
2021/03/10 09:10:23;;;;;;;26.97;23.00;;;5.10;99.90;;;;;;5076345;28;20272;-47
2021/03/10 09:12:51;;;;;;;26.80;22.60;;;5.10;99.90;;;;;;5076680;28;20174;-56
2021/03/10 09:15:24;;;;;;;26.67;23.00;;;5.10;99.90;;;;;;5077160;28;20570;-52
2021/03/10 09:17:51;;;;;;;30.83;24.07;;;5.00;99.90;;;;;;5077154;28;20297;-52
2021/03/10 09:20:31;;;;;;;27.63;23.93;;;4.90;99.90;;;;;;5077902;28;20183;-56
2021/03/10 09:22:58;;;;;;;34.03;26.37;;;4.70;99.90;;;;;;5076223;28;20657;-50
2021/03/10 09:25:26;;;;;;;32.53;25.70;;;4.50;99.90;;;;;;5076669;28;20739;-50
2021/03/10 09:28:09;;;;;;;30.30;24.87;;;4.40;99.90;;;;;;5076083;28;20224;-47
2021/03/10 09:30:37;;;;;;;32.57;25.17;;;4.30;99.90;;;;;;5076792;28;20249;-56
2021/03/10 09:33:03;;;;;;;32.33;25.50;;;4.20;99.90;;;;;;5077245;28;20223;-57
2021/03/10 09:35:33;;;;;;;30.77;25.43;;;4.20;99.90;;;;;;5077108;28;20658;-52
2021/03/10 09:38:04;;;;;;;31.20;24.20;;;4.20;99.90;;;;;;5076930;28;20259;-57
2021/03/10 09:40:44;;;;;;;30.57;25.33;;;4.40;99.90;;;;;;5076261;28;20638;-47
2021/03/10 09:43:21;;;;;;;33.70;26.20;;;4.60;99.90;;;;;;5077766;28;20200;-51
2021/03/10 09:45:49;;;;;;;31.87;25.40;;;4.70;99.90;;;;;;5087276;28;20290;-48
2021/03/10 09:48:27;;;;;;;31.03;24.67;;;4.70;99.90;;;;;;5097668;28;20174;-51
2021/03/10 09:51:12;;;;;;;31.30;25.07;;;4.60;99.90;;;;;;5097813;28;20219;-52
2021/03/10 09:53:49;;;;;;;30.53;24.73;;;4.60;99.90;;;;;;5098304;28;20231;-55
2021/03/10 09:56:17;;;;;;;31.60;26.23;;;4.70;99.90;;;;;;5096653;28;20204;-52
2021/03/10 09:58:51;;;;;;;28.13;24.03;;;4.70;99.90;;;;;;5096379;28;20184;-54
2021/03/10 10:01:17;;;;;;;29.00;23.43;;;4.70;99.90;;;;;;5096161;28;20638;-56
2021/03/10 10:03:43;;;;;;;30.00;24.13;;;4.80;99.90;;;;;;5095872;28;20204;-49
2021/03/10 10:06:10;;;;;;;29.50;23.07;;;5.10;99.90;;;;;;5091800;28;20198;-48
2021/03/10 10:08:38;;;;;;;26.63;22.37;;;5.20;99.90;;;;;;5094211;28;20185;-52
2021/03/10 10:11:05;;;;;;;27.93;22.63;;;5.40;99.90;;;;;;5094607;28;20178;-52
2021/03/10 10:13:30;;;;;;;25.87;21.67;;;5.50;99.90;;;;;;5096994;28;20707;-51
2021/03/10 10:15:56;;;;;;;24.97;21.80;;;5.50;99.90;;;;;;5096041;28;20296;-50
2021/03/10 10:18:22;;;;;;;29.33;23.60;;;5.60;99.90;;;;;;5096197;28;20181;-51
2021/03/10 10:20:48;;;;;;;28.67;22.20;;;5.80;99.90;;;;;;5087134;28;20514;-48
2021/03/10 10:23:14;;;;;;;27.90;22.33;;;5.90;99.90;;;;;;5075825;28;20682;-48
2021/03/10 10:25:39;;;;;;;26.37;20.97;;;5.80;99.90;;;;;;5075110;28;20198;-50
2021/03/10 10:28:05;;;;;;;27.70;23.63;;;5.60;99.90;;;;;;5081680;28;20209;-54
2021/03/10 10:30:30;;;;;;;27.07;22.43;;;5.60;99.90;;;;;;5095761;28;20170;-47
2021/03/10 10:32:56;;;;;;;24.87;21.43;;;5.80;99.90;;;;;;5096436;28;20227;-55
2021/03/10 10:35:21;;;;;;;24.13;20.50;;;6.10;99.90;;;;;;5094458;28;20538;-48
2021/03/10 10:37:47;;;;;;;41.07;30.30;;;6.00;99.90;;;;;;5093547;28;20264;-55
2021/03/10 10:40:18;;;;;;;93.30;57.23;;;6.10;99.90;;;;;;5094327;28;20266;-53
2021/03/10 10:42:49;;;;;;;41.40;31.70;;;6.30;99.90;;;;;;5095878;28;20177;-57
2021/03/10 10:45:15;;;;;;;20.17;18.03;;;6.90;99.90;;;;;;5095241;28;20555;-52
2021/03/10 10:47:41;;;;;;;20.77;18.57;;;8.30;99.90;;;;;;5093886;28;20256;-52
2021/03/10 10:50:09;;;;;;;18.40;16.50;;;9.40;99.90;;;;;;5095537;28;20174;-49
2021/03/10 10:52:36;;;;;;;17.73;15.90;;;10.70;99.90;;;;;;5095235;28;20196;-49
2021/03/10 10:55:04;;;;;;;16.60;14.90;;;12.40;99.90;;;;;;5094820;28;20699;-53
2021/03/10 10:57:30;;;;;;;14.60;13.20;;;14.50;99.90;;;;;;5095731;28;20653;-52
2021/03/10 10:59:55;;;;;;;15.07;13.50;;;17.10;99.30;;;;;;5094847;28;20204;-51
2021/03/10 11:02:21;;;;;;;15.60;14.20;;;19.10;94.10;;;;;;5094831;28;20263;-51
2021/03/10 11:04:47;;;;;;;14.17;12.90;;;20.10;91.80;;;;;;5094549;28;20205;-51
2021/03/10 11:07:12;;;;;;;15.67;14.17;;;20.50;89.10;;;;;;5094604;28;20614;-49
2021/03/10 11:09:40;;;;;;;15.30;13.83;;;19.90;84.00;;;;;;5094565;28;20201;-53
2021/03/10 11:12:08;;;;;;;17.00;15.40;;;17.40;85.50;;;;;;5094772;28;20181;-54
2021/03/10 11:14:34;;;;;;;16.80;15.10;;;15.20;90.70;;;;;;5095243;28;20182;-51
2021/03/10 11:17:00;;;;;;;17.67;15.97;;;13.80;94.90;;;;;;5094737;28;20192;-54
2021/03/10 11:19:26;;;;;;;14.50;13.10;;;13.70;97.00;;;;;;5094631;28;20261;-58
2021/03/10 11:21:54;;;;;;;15.13;13.63;;;14.90;98.40;;;;;;5089045;28;20218;-53
2021/03/10 11:24:20;;;;;;;12.90;11.70;;;16.60;94.40;;;;;;5073929;28;20589;-48
2021/03/10 11:26:46;;;;;;;12.60;11.40;;;17.40;93.00;;;;;;5074048;28;20195;-49
2021/03/10 11:29:12;;;;;;;13.15;11.95;;;19.10;92.70;;;;;;5075005;28;20187;-51
2021/03/10 11:31:38;;;;;;;13.60;12.40;;;20.40;86.20;;;;;;5074776;28;20179;-50
2021/03/10 11:34:04;;;;;;;13.60;12.40;;;19.60;82.30;;;;;;5073799;28;20177;-52
2021/03/10 11:36:29;;;;;;;13.60;12.30;;;19.40;83.20;;;;;;5073169;28;20202;-52
2021/03/10 11:38:55;;;;;;;13.13;11.87;;;19.50;82.00;;;;;;5074617;28;20305;-52
2021/03/10 11:41:20;;;;;;;12.80;11.60;;;19.50;80.00;;;;;;5074105;28;20174;-48
2021/03/10 11:43:46;;;;;;;13.07;11.80;;;18.90;79.60;;;;;;5074411;28;20256;-51
2021/03/10 11:46:11;;;;;;;14.07;12.67;;;18.00;81.70;;;;;;5073842;28;20614;-51
2021/03/10 11:48:37;;;;;;;14.37;12.97;;;17.10;85.10;;;;;;5074081;28;20185;-52
2021/03/10 11:51:03;;;;;;;12.43;11.23;;;18.00;89.10;;;;;;5074183;28;20175;-50
2021/03/10 11:53:28;;;;;;;11.00;9.90;;;19.60;79.70;;;;;;5073660;28;20243;-58
2021/03/10 11:55:54;;;;;;;10.15;9.25;;;21.60;80.60;;;;;;5074165;28;20500;-47
2021/03/10 11:58:19;;;;;;;12.30;11.00;;;24.00;73.10;;;;;;5074008;28;20174;-53
2021/03/10 12:00:45;;;;;;;11.95;10.95;;;22.90;66.60;;;;;;5074320;28;20176;-55
2021/03/10 12:03:11;;;;;;;12.13;11.02;;;20.50;72.40;;;;;;5091662;28;20203;-53
2021/03/10 12:05:36;;;;;;;12.47;11.30;;;19.70;71.30;;;;;;5078836;28;20674;-49
2021/03/10 12:08:02;;;;;;;12.77;11.57;;;18.70;71.90;;;;;;5073365;28;20174;-53
2021/03/10 12:10:28;;;;;;;12.00;10.70;;;17.10;74.90;;;;;;5074670;28;20194;-49
2021/03/10 12:12:53;;;;;;;12.90;11.60;;;15.60;78.80;;;;;;5072845;28;20284;-48
2021/03/10 12:15:19;;;;;;;13.27;11.97;;;14.30;82.00;;;;;;5073546;28;20205;-53
2021/03/10 12:17:46;;;;;;;12.47;11.27;;;13.80;85.90;;;;;;5073387;28;20177;-50
2021/03/10 12:20:12;;;;;;;13.20;11.90;;;13.30;89.30;;;;;;5085912;28;20241;-48
2021/03/10 12:22:38;;;;;;;12.40;11.17;;;12.70;91.00;;;;;;5093792;28;20182;-49
2021/03/10 12:25:05;;;;;;;13.33;12.00;;;12.10;91.10;;;;;;5094388;28;20634;-50
2021/03/10 12:27:31;;;;;;;13.73;12.33;;;11.50;92.70;;;;;;5092947;28;20189;-48
2021/03/10 12:29:57;;;;;;;15.13;12.97;;;10.50;94.60;;;;;;5093628;28;20170;-51
2021/03/10 12:32:25;;;;;;;14.33;12.80;;;9.60;97.40;;;;;;5094047;28;20178;-51
2021/03/10 12:34:54;;;;;;;13.90;12.40;;;8.80;99.90;;;;;;5097757;28;20645;-52
2021/03/10 12:37:20;;;;;;;13.93;12.33;;;8.50;99.90;;;;;;5098320;28;20714;-52
2021/03/10 12:39:46;;;;;;;15.07;12.97;;;8.20;99.90;;;;;;5096511;28;20256;-50